Tiempo atmosférico en la estación meteorológica de Chinchilla, Albacete (880 m.)

Fecha
DESCASC
Temp. máxima en grados centígrados (hora)
DESCASC
Temp. mínima en grados centígrados (hora)
DESCASC
Temp. media en grados centígrados
DESCASC
Racha de viento máxima en m/sg (hora)
DESCASC
Velocidad máxima media en intervalos de 10 minutos(hora)
DESCASC
Precipitaciones diarias en mm
DESCASC
Precipitaciones de 00:00 a 06:00 en mm
DESCASC
Precipitaciones de 06:00 a 12:00 en mm
DESCASC
Precipitaciones de 12:00 a 18:00 en mm
DESCASC
Precipitaciones de 18:00 a 24:00 en mm
DESCASC
17-09-2017 23.7 (15:30) 9.7 (07:50) 16.7 10.28 (12:40) 5.83 (19:10) 0 0 0 0 0
16-09-2017 19.9 (16:40) 9.6 (03:30) 14.8 11.11 (17:20) 6.94 (00:40) 0 0 0 0 0
15-09-2017 25.3 (14:10) 11.7 (23:59) 18.5 11.67 (16:40) 8.61 (19:40) 0 0 0 0 0
14-09-2017 28.8 (16:00) 13.8 (00:00) 21.3 11.11 (16:40) 6.11 (23:50) 0 0 0 0 0
13-09-2017 28 (16:10) 12 (00:00) 20 10 (13:00) 6.67 (12:40) 0 0 0 0 0
12-09-2017 -- (--) -- (--) -- -- (--) -- (--) -- 0 -- 0 0
11-09-2017 27.6 (17:30) 11.7 (00:00) 19.7 11.39 (18:40) 6.39 (18:10) 0 0 0 0 0
10-09-2017 19.9 (18:20) 8.4 (00:00) 14.1 14.17 (17:00) 8.06 (12:30) 0 0 0 0 0
09-09-2017 23.3 (15:40) 16.5 (00:00) 19.9 15.83 (10:20) 8.61 (12:40) 0 0 0 0 0
08-09-2017 29.9 (17:00) 15.8 (00:00) 22.8 8.33 (18:30) 5.28 (19:20) 0 0 0 0 0
07-09-2017 28.3 (17:00) 15.7 (00:00) 22 7.5 (01:40) 5.28 (05:50) 2.4 2.4 0 0 0
06-09-2017 30.6 (16:50) 15.4 (00:00) 23 9.72 (14:30) 6.94 (21:10) 0 0 0 0 0
05-09-2017 29.6 (17:00) 15 (00:00) 22.3 9.72 (13:40) 5.83 (09:30) 0 0 0 0 0
04-09-2017 28.1 (17:10) 17.1 (00:00) 22.6 9.72 (21:40) 6.94 (21:30) 0 0 0 0 0
03-09-2017 28 (17:40) 13.3 (00:00) 20.7 10.28 (14:20) 5.83 (14:50) 0.2 0.1 0.1 0 0
02-09-2017 25.4 (17:30) 14.3 (00:00) 19.8 7.78 (16:10) 5.56 (05:00) 0.2 0.2 0 0 0
01-09-2017 25.7 (16:30) 14.1 (00:00) 19.9 9.44 (12:50) 6.39 (00:40) 12.3 0 0 0 12.3
31-08-2017 27.1 (15:20) 15.5 (00:00) 21.3 7.78 (23:59) 5.56 (23:59) 0 0 0 0 0
30-08-2017 21.9 (19:10) 13.2 (00:00) 17.5 11.39 (00:50) 7.5 (00:50) 0.4 0.4 0 0 0
29-08-2017 20.1 (13:00) 13.3 (00:00) 16.7 15.83 (17:20) 9.72 (16:10) 15.3 7 0 3.8 4.5
28-08-2017 25.4 (13:10) 16.4 (00:00) 20.9 11.94 (12:20) 8.06 (12:00) 0 0 0 0 0
27-08-2017 28.3 (15:10) 18 (00:00) 23.1 15.56 (16:30) 8.61 (16:30) 0.1 0.1 0 0 0
26-08-2017 34.4 (14:30) 18.4 (00:00) 26.4 11.39 (20:00) 7.22 (20:00) 0 0 0 0 0
25-08-2017 34.3 (15:50) 17.3 (00:00) 25.8 12.22 (16:50) 7.5 (16:50) 0 0 0 0 0
24-08-2017 33.5 (16:30) 17.4 (00:00) 25.4 11.39 (17:30) 6.11 (17:50) 0 0 0 0 0
23-08-2017 32.9 (15:30) 17.3 (00:00) 25.1 11.11 (17:10) 8.33 (18:20) 0 0 0 0 0
22-08-2017 33.7 (16:40) 15.3 (00:00) 24.5 7.78 (20:30) 5.28 (20:20) 0 0 0 0 0

Gráficas

Temp. máximas Temp. mínimas Temp. medias Precipitaciones Rachas de viento máximas Velocidades máximas media en intervalos de 10 minutos

Datos horarios

Fecha y hora oficial Temperatura (ºC) Velocidad del viento (km/h) Dirección del viento Racha (km/h) Dirección de racha Precipitación (mm) Presión (hPa) Tendencia (hPa) Humedad (%)
2017-09-20 23:00:00 16.4 9 Sur 18 Sur 0 918.8 0.7 69
2017-09-20 22:00:00 17.3 8 Sur 17 Sur 0 918.7 0.8 58
2017-09-20 21:00:00 18.5 4 Sur 18 Sur 0 918.2 0.6 47
2017-09-20 20:00:00 20.7 14 Sur 24 Sudoeste 0 918.1 0.1 37
2017-09-20 19:00:00 23.7 15 Sur 24 Sur 0 917.9 -0.6 29
2017-09-20 18:00:00 26.2 3 Sudoeste 17 Sur 0 917.6 -1.4 22
2017-09-20 17:00:00 26.7 9 Sudoeste 21 Oeste 0 918 -1.7 22
2017-09-20 16:00:00 26.2 6 Sudoeste 23 Sudoeste 0 918.5 -1.9 21
2017-09-20 15:00:00 25.6 3 Sudoeste 17 Sudoeste 0 919 -1.9 24
2017-09-20 14:00:00 24 3 Sudeste 18 Sur 0 919.7 -1.4 29
2017-09-20 13:00:00 22.9 10 Sur 19 Sudoeste 0 920.4 -0.5 39
2017-09-20 12:00:00 20.8 9 Sur 17 Sudeste 0 920.9 0.5 49
2017-09-20 11:00:00 16.3 8 Sur 15 Sur 0 921.1 0.9 75
2017-09-20 10:00:00 13.7 9 Sudeste 16 Sudeste 0 920.9 0.8 81
2017-09-20 09:00:00 11.9 12 Este 19 Este 0 920.4 0.2 91
2017-09-20 08:00:00 11 15 Este 21 Sudeste 0 920.2 -0.2 90
2017-09-20 07:00:00 11.4 15 Este 19 Este 0 920.1 -0.3 88
2017-09-20 06:00:00 11.8 13 Sudeste 17 Sudeste 0 920.2 -0.4 88
2017-09-20 05:00:00 11.7 13 Este 19 Este 0 920.4 -0.3 86
2017-09-20 04:00:00 12.3 14 Este 21 Este 0 920.4 -0.5 82
2017-09-20 03:00:00 13 14 Este 23 Este 0 920.6 -0.2 73
2017-09-20 02:00:00 13.7 9 Este 17 Sudeste 0 920.7 -0.2 38
2017-09-20 01:00:00 14.7 0 Calma 19 Norte 0 920.9 0.2 36
2017-09-20 00:00:00 15.9 13 Norte 21 Noroeste 0 920.8 0.4 35
2017-09-19 23:00:00 16.7 12 Norte 20 Noroeste 0 920.9 0.7 33
2017-09-19 22:00:00 18.3 12 Noroeste 19 Noroeste 0 920.7 0.7 31
2017-09-19 21:00:00 18.8 11 Noroeste 23 Noroeste 0 920.4 0.5 30
2017-09-19 20:00:00 20.4 14 Noroeste 26 Oeste 0 920.2 0.3 29
2017-09-19 19:00:00 22.1 14 Noroeste 28 Noroeste 0 920 -0.2 28
2017-09-19 18:00:00 22.9 16 Norte 29 Norte 0 919.9 -1.1 28
2017-09-19 17:00:00 22.8 14 Noroeste 32 Norte 0 919.9 -1.8 29
2017-09-19 16:00:00 22.5 12 Noroeste 33 Noroeste 0 920.2 -1.9 30
2017-09-19 15:00:00 21.5 13 Noroeste 29 Noroeste 0 921 -1.5 34
2017-09-19 14:00:00 19.9 13 Noroeste 29 Noroeste 0 921.7 -0.6 36
2017-09-19 13:00:00 19.4 12 Noroeste 23 Noroeste 0 922.1 0.6 41
2017-09-19 12:00:00 17.8 10 Noroeste 19 Oeste 0 922.5 1.7 46
2017-09-19 11:00:00 16.4 6 Noroeste 13 Sudoeste 0 922.3 1.8 57
2017-09-19 10:00:00 13.2 2 Sudoeste 6 Sudoeste 0 921.5 1.3 72
2017-09-19 09:00:00 9.2 0 Calma 7 Sur 0 920.8 0.6 67
2017-09-19 08:00:00 7.9 0 Calma 5 Nordeste 0 920.5 0.5 68
2017-09-19 07:00:00 9.2 0 Calma 3 Este 0 920.2 0 62
2017-09-19 06:00:00 10.2 0 Calma 14 Norte 0 920.2 -0.3 58
2017-09-19 05:00:00 9.9 4 Norte 8 Norte 0 920 -0.4 59
2017-09-19 04:00:00 10.5 3 Nordeste 12 Sudeste 0 920.2 -0.5 56
2017-09-19 03:00:00 13.6 2 Este 17 Nordeste 0 920.5 -0.1 56
2017-09-19 02:00:00 13.2 8 Nordeste 17 Nordeste 0 920.4 0.1 44
2017-09-19 01:00:00 13.6 11 Norte 17 Norte 0 920.7 1 42
2017-09-19 00:00:00 14.9 10 Norte 17 Norte 0 920.6 1.7 40
2017-09-18 23:00:00 15.8 10 Norte 21 Norte 0 920.3 2.2 38
2017-09-18 22:00:00 16.8 12 Norte 22 Norte 0 919.7 1.9 37
2017-09-18 21:00:00 18 13 Norte 30 Noroeste 0 918.9 1.7 33
2017-09-18 20:00:00 19.4 22 Norte 39 Noroeste 0 918.1 0.8 30
2017-09-18 19:00:00 21.3 17 Noroeste 46 Norte 0 917.8 0.6 27
2017-09-18 18:00:00 21.6 18 Noroeste 49 Noroeste 0 917.2 -0.5 26
2017-09-18 17:00:00 21.9 25 Noroeste 45 Oeste 0 917.3 -0.8 26
2017-09-18 16:00:00 22 18 Noroeste 40 Noroeste 0 917.2 -1.2 25
2017-09-18 15:00:00 21.9 18 Noroeste 37 Noroeste 0 917.7 -0.8 24
2017-09-18 14:00:00 20.9 22 Noroeste 41 Noroeste 0 918.1 -0.2 24
2017-09-18 13:00:00 19.7 24 Noroeste 46 Oeste 0 918.4 0.3 27
2017-09-18 12:00:00 18.9 27 Noroeste 42 Noroeste 0 918.5 0.8 30
2017-09-18 11:00:00 16.9 22 Noroeste 34 Noroeste 0 918.3 0.9 38
2017-09-18 10:00:00 14.7 18 Noroeste 31 Noroeste 0 918.1 1.2 43
2017-09-18 09:00:00 14.2 14 Oeste 23 Noroeste 0 917.7 0.6 41
2017-09-18 08:00:00 13.2 13 Noroeste 21 Noroeste 0 917.4 0.2 42
2017-09-18 07:00:00 13.5 13 Noroeste 20 Noroeste 0 916.9 -0.2 40
2017-09-18 06:00:00 13.9 13 Noroeste 19 Noroeste 0 917.1 -0.3 40
2017-09-18 05:00:00 14 9 Noroeste 21 Noroeste 0 917.2 -0.3 40
2017-09-18 04:00:00 13.1 6 Noroeste 12 Noroeste 0 917.1 -0.9 43
2017-09-18 03:00:00 13.2 6 Noroeste 10 Oeste 0 917.4 -0.7 45
2017-09-18 02:00:00 13.8 0 Calma 4 Noroeste 0 917.5 -0.6 77
2017-09-18 01:00:00 14.4 0 Calma 5 Norte 0 918 0 79
2017-09-18 00:00:00 15.6 2 Sur 6 Sur 0 918.1 0.8 74
2017-09-17 23:00:00 16.6 0 Calma 16 Sur 0 918.1 1.5 68
2017-09-17 22:00:00 17.6 7 Sur 18 Sudoeste 0 918 1.8 49
2017-09-17 21:00:00 18.6 3 Oeste 18 Oeste 0 917.3 1.2 24
2017-09-17 20:00:00 20.2 8 Noroeste 32 Noroeste 0 916.6 0.2 20
2017-09-17 19:00:00 22.7 16 Noroeste 33 Noroeste 0 916.2 -0.5 19
2017-09-17 18:00:00 23.3 17 Noroeste 35 Noroeste 0 916.1 -1.1 19
2017-09-17 17:00:00 23.1 19 Noroeste 33 Oeste 0 916.4 -1.7 20
2017-09-17 16:00:00 23.3 13 Oeste 35 Oeste 0 916.7 -2.1 21
2017-09-17 15:00:00 22.6 14 Oeste 33 Noroeste 0 917.2 -1.8 23
2017-09-17 14:00:00 21.3 8 Oeste 29 Oeste 0 918.1 -0.9 26
2017-09-17 13:00:00 20.1 12 Noroeste 37 Oeste 0 918.8 0.2 28
2017-09-17 12:00:00 18.9 12 Sudoeste 26 Sudoeste 0 919 1.2 36
2017-09-17 11:00:00 16.8 9 Sudoeste 19 Sur 0 919 1.6 51
2017-09-17 10:00:00 14.1 7 Sur 14 Sur 0 918.6 1.7 73
2017-09-17 09:00:00 11.4 6 Sudeste 13 Sudeste 0 917.8 1.1 92
2017-09-17 08:00:00 9.7 8 Sudeste 14 Sudeste 0 917.4 0.8 92
2017-09-17 07:00:00 10.3 10 Sudeste 15 Sudeste 0 916.9 0.4 92
2017-09-17 06:00:00 10.4 10 Sudeste 16 Sur 0 916.7 0 92
2017-09-17 05:00:00 10.7 7 Sudeste 13 Sudeste 0 916.6 -0.1 92
2017-09-17 04:00:00 10.8 5 Sudeste 9 Sudeste 0 916.5 -0.3 89
2017-09-17 03:00:00 11.5 8 Sur 10 Sur 0 916.7 0 88
2017-09-17 02:00:00 12.1 6 Sur 11 Sudeste 0 916.7 0.3 86
2017-09-17 01:00:00 11.5 5 Sudeste 12 Sudeste 0 916.8 1 72
2017-09-17 00:00:00 11.8 0 Calma 4 Sur 0 916.7 1.7 34
2017-09-16 23:00:00 12 0 Calma 7 Nordeste 0 916.4 2.2 33
2017-09-16 22:00:00 13.7 4 Nordeste 17 Norte 0 915.8 2.2 32
2017-09-16 21:00:00 15.2 11 Norte 28 Norte 0 915 1.9 30
2017-09-16 20:00:00 17 18 Norte 33 Norte 0 914.2 1.4 30
2017-09-16 19:00:00 18 19 Norte 38 Noroeste 0 913.6 0.6 30
2017-09-16 18:00:00 17.6 18 Noroeste 40 Norte 0 913.1 0.7 33
2017-09-16 17:00:00 19.3 19 Noroeste 37 Noroeste 0 912.8 -0.7 32
2017-09-16 16:00:00 18.1 11 Norte 30 Norte 0 913 -0.7 36
2017-09-16 15:00:00 18.5 12 Noroeste 35 Noroeste 0 912.4 -2 37
2017-09-16 14:00:00 17 11 Noroeste 26 Norte 0 913.5 -0.7 43
2017-09-16 13:00:00 17.6 5 Sudoeste 20 Oeste 0 913.7 0.2 46
2017-09-16 12:00:00 15.8 2 Sudoeste 15 Sudeste 0 914.4 1.4 59
2017-09-16 11:00:00 14.2 9 Sudeste 18 Sudeste 0 914.2 1.6 64
2017-09-16 10:00:00 11.7 11 Sudeste 19 Este 0 913.5 1.2 73
2017-09-16 09:00:00 11.2 7 Este 14 Sudeste 0 913 0.6 73
2017-09-16 08:00:00 10.1 3 Este 20 Sudeste 0 912.6 0.4 74
2017-09-16 07:00:00 10.5 13 Sudeste 21 Sudeste 0 912.3 -0.1 72
2017-09-16 06:00:00 10.2 9 Este 18 Sudeste 0 912.4 -0.5 76
2017-09-16 05:00:00 10.4 12 Este 19 Este 0 912.2 -0.8 75
2017-09-16 04:00:00 10 16 Este 21 Sudeste 0 912.4 -0.7 75
2017-09-16 03:00:00 10.2 12 Sudeste 27 Este 0 912.9 -0.4 74
2017-09-16 02:00:00 11.2 15 Sudeste 29 Este 0 913 -0.3 82
2017-09-16 01:00:00 11.1 22 Este 35 Este 0 913.1 0 82
2017-09-16 00:00:00 11.7 21 Este 30 Sudeste 0 913.3 1.4 82
2017-09-15 23:00:00 12.4 12 Este 32 Este 0 913.3 1.9 82
2017-09-15 22:00:00 12.5 21 Este 38 Este 0 913.1 2.1 81
2017-09-15 21:00:00 13.3 21 Este 37 Sudeste 0 911.9 1.6 77
2017-09-15 20:00:00 14.8 28 Sudeste 39 Este 0 911.4 0.9 70
2017-09-15 19:00:00 17.7 23 Sudeste 32 Sudeste 0 911 0.6 58
2017-09-15 18:00:00 23 15 Este 30 Sudeste 0 910.3 -0.5 44
2017-09-15 17:00:00 23.5 11 Norte 42 Norte 0 910.5 -0.8 37
2017-09-15 16:00:00 23.4 19 Este 31 Sudeste 0 910.4 -1.5 44
2017-09-15 15:00:00 24.3 13 Sudoeste 28 Sudoeste 0 910.8 -1.8 35
2017-09-15 14:00:00 24.5 7 Sudoeste 23 Sur 0 911.3 -2.1 39
2017-09-15 13:00:00 23.7 12 Sur 30 Sur 0 911.9 -1.5 43
2017-09-15 12:00:00 21.8 17 Sur 27 Sur 0 912.6 -0.4 49
2017-09-15 11:00:00 19.4 15 Sur 24 Sudeste 0 913.4 0.5 61
2017-09-15 10:00:00 18.1 17 Sudeste 24 Sudeste 0 913.4 0.5 69
2017-09-15 09:00:00 14.7 18 Este 23 Sudeste 0 913 -0.2 89
2017-09-15 08:00:00 13.7 16 Este 25 Sudeste 0 912.9 -0.7 89
2017-09-15 07:00:00 13.8 15 Este 24 Este 0 912.9 -1.4 87
2017-09-15 06:00:00 14 14 Este 31 Sudeste 0 913.2 -1.6 84
2017-09-15 05:00:00 14.6 15 Este 30 Sudeste 0 913.6 -1.5 76
2017-09-15 04:00:00 15.2 22 Este 28 Este 0 914.3 -1.4 66
2017-09-15 03:00:00 15.9 17 Este 26 Este 0 914.8 -1.3 59
2017-09-15 02:00:00 16.5 18 Este 32 Este 0 915.1 -0.9 55
2017-09-15 01:00:00 16.7 20 Este 31 Este 0 915.7 -0.1 50
2017-09-15 00:00:00 17.9 20 Este 31 Este 0 916.1 0.4 45
2017-09-14 23:00:00 22 7 Noroeste 17 Noroeste 0 916 0.6 25
2017-09-14 22:00:00 22.2 11 Noroeste 17 Noroeste 0 915.8 0.6 25
2017-09-14 21:00:00 22.2 11 Norte 18 Noroeste 0 915.7 0.2 24
2017-09-14 20:00:00 24.8 14 Norte 28 Noroeste 0 915.4 -0.5 22
2017-09-14 19:00:00 27.3 15 Noroeste 32 Noroeste 0 915.2 -1.2 21
2017-09-14 18:00:00 28 18 Noroeste 34 Noroeste 0 915.5 -1.9 21
2017-09-14 17:00:00 27.8 15 Noroeste 40 Noroeste 0 915.9 -2.2 21
2017-09-14 16:00:00 28.6 12 Noroeste 37 Noroeste 0 916.4 -2.4 22
2017-09-14 15:00:00 27.3 19 Noroeste 37 Noroeste 0 917.4 -2.1 23
2017-09-14 14:00:00 26.7 18 Noroeste 37 Noroeste 0 918.1 -1.6 26
2017-09-14 13:00:00 25.9 18 Noroeste 33 Oeste 0 918.8 -0.9 29
2017-09-14 12:00:00 24.3 14 Noroeste 30 Noroeste 0 919.5 0.3 33
2017-09-14 11:00:00 21.6 16 Noroeste 27 Oeste 0 919.7 0.6 40
2017-09-14 10:00:00 19.8 16 Noroeste 29 Noroeste 0 919.7 0.5 42
2017-09-14 09:00:00 17.6 12 Noroeste 20 Oeste 0 919.2 0.1 46
2017-09-14 08:00:00 17 13 Noroeste 24 Noroeste 0 919.1 0 45
2017-09-14 07:00:00 15.8 5 Noroeste 11 Noroeste 0 919.2 -0.5 57
2017-09-14 06:00:00 14.6 0 Calma 5 Este 0 919.1 -1 73
2017-09-14 05:00:00 14 3 Sudeste 12 Sudeste 0 919.1 -1.4 80
2017-09-14 04:00:00 13.9 9 Sudeste 14 Sudeste 0 919.7 -1.2 80
2017-09-14 03:00:00 14.6 8 Sudeste 18 Sudeste 0 920.1 -1 75
2017-09-14 02:00:00 15.2 9 Sudeste 17 Sudeste 0 920.5 -0.8 72
2017-09-14 01:00:00 15.7 11 Sudeste 20 Sudeste 0 920.9 -0.4 69
2017-09-14 00:00:00 16.1 12 Sudeste 18 Sudeste 0 921.1 0.1 66
2017-09-13 23:00:00 17.2 15 Sudeste 22 Sudeste 0 921.3 0.8 58
2017-09-13 22:00:00 18.9 14 Sudeste 23 Sur 0 921.3 0.8 48
2017-09-13 21:00:00 20.4 13 Sur 24 Sur 0 921 0.4 41
2017-09-13 20:00:00 22.5 17 Sur 29 Sur 0 920.5 -0.5 34
2017-09-13 19:00:00 24.7 21 Sur 33 Sur 0 920.5 -0.9 30
2017-09-13 18:00:00 26.4 22 Sur 31 Sur 0 920.6 -1.6 28
2017-09-13 17:00:00 27.4 20 Sur 33 Sur 0 921 -1.7 27
2017-09-13 16:00:00 27.7 18 Sur 30 Sur 0 921.4 -1.3 27
2017-09-13 15:00:00 26.3 19 Sur 35 Sur 0 922.2 -1.4 30
2017-09-13 14:00:00 25.3 20 Sur 34 Sur 0 922.7 -1 33
2017-09-13 13:00:00 23.6 23 Sur 36 Sur 0 922.7 -0.6 38
2017-09-13 12:00:00 21.9 22 Sur 33 Sur 0 923.6 0.8 42
2017-09-13 11:00:00 19.7 20 Sur 27 Sur 0 923.7 1.1 50
2017-09-13 10:00:00 17 13 Sudeste 23 Sudeste 0 923.3 1.2 65
2017-09-13 09:00:00 14.1 10 Sudeste 19 Sudeste 0 922.8 1.1 85
2017-09-13 08:00:00 12.2 12 Sudeste 18 Sudeste 0 922.6 1 90
2017-09-13 07:00:00 12.2 13 Sudeste 18 Este 0 922.1 0.1 90
2017-09-13 06:00:00 12.5 13 Este 19 Este 0 921.7 -0.1 90
2017-09-13 05:00:00 12.8 14 Sudeste 17 Sudeste 0 921.6 -0.1 88
2017-09-13 04:00:00 13.5 11 Sudeste 16 Sudeste 0 922 0.3 87
2017-09-13 03:00:00 14.1 9 Sudeste 18 Este 0 921.8 0.5 84
2017-09-13 02:00:00 14.1 15 Este 22 Este 0 921.7 0.2 79
2017-09-13 01:00:00 15 12 Este 27 Este 0 921.7 1.1 69
2017-09-13 00:00:00 15.9 0 Calma 19 Sudeste 0 921.3 2.2 45
2017-09-12 23:00:00 17.6 4 Norte 7 Norte 0 921.5 3.3 36
2017-09-12 22:00:00 18.8 5 Norte 12 Norte 0 920.6 2.6 35
2017-09-12 21:00:00 20.5 9 Norte -- -- -- 919.1 1.5 33
2017-09-12 20:00:00 22.7 21 Norte 36 Norte 0 918.2 0.7 30
2017-09-12 19:00:00 24.1 21 Norte 40 Norte 0 918 0.7 29
2017-09-12 18:00:00 24.9 18 Noroeste 38 Noroeste 0 917.6 0.1 29
2017-09-12 17:00:00 24.9 22 Noroeste 42 Noroeste 0 917.5 -0.1 29
2017-09-12 16:00:00 25.7 19 Noroeste 44 Noroeste 0 917.3 -0.6 30
2017-09-12 15:00:00 24.2 18 Noroeste 42 Noroeste 0 917.5 -0.3 32
2017-09-12 14:00:00 23.4 17 Noroeste 36 Noroeste 0 917.6 0.3 34
2017-09-12 13:00:00 22 18 Norte 32 Norte 0 917.9 1.1 36
2017-09-12 12:00:00 20.9 19 Norte 33 Norte 0 917.8 1.7 39
2017-09-12 11:00:00 19.2 15 Norte 26 Norte 0 917.3 1.5 43
2017-09-12 10:00:00 17.3 12 Norte 22 Noroeste 0 916.8 -- 47
2017-09-12 09:00:00 15.2 13 Norte 20 Norte 0 916.1 1.2 52
2017-09-12 08:00:00 14 15 Norte -- -- -- 915.8 0.7 50
2017-09-12 07:00:00 -- -- -- -- -- -- -- -- --
2017-09-12 06:00:00 16.2 17 Noroeste 27 Noroeste 0 914.9 -0.3 43
2017-09-12 05:00:00 16.8 17 Noroeste 23 Noroeste 0 915.1 -0.2 40
2017-09-12 04:00:00 17.2 14 Noroeste 26 Noroeste 0 915.2 0 38
2017-09-12 03:00:00 17.5 14 Noroeste 26 Noroeste 0 915.2 0.2 35
2017-09-12 02:00:00 18.1 13 Noroeste 21 Noroeste 0 915.3 0.4 33
2017-09-12 01:00:00 18.7 12 Noroeste 17 Oeste 0 915.2 1.1 31
2017-09-12 00:00:00 18.7 6 Noroeste 14 Noroeste 0 915 1.4 32
2017-09-11 23:00:00 19.9 8 Norte 17 Norte 0 914.9 1.4 31
2017-09-11 22:00:00 21.9 9 Noroeste 18 Noroeste 0 914.1 0.6 29
2017-09-11 21:00:00 23.3 10 Noroeste 24 Noroeste 0 913.6 0.2 26
2017-09-11 20:00:00 25.2 18 Noroeste 39 Noroeste 0 913.5 -0.1 24
2017-09-11 19:00:00 26.4 20 Noroeste 41 Norte 0 913.5 -0.7 24
2017-09-11 18:00:00 27 19 Noroeste 39 Noroeste 0 913.4 -1.4 24
2017-09-11 17:00:00 27.2 19 Noroeste 40 Noroeste 0 913.6 -1.7 25
2017-09-11 16:00:00 26.3 21 Noroeste 38 Noroeste 0 914.2 -1.4 26
2017-09-11 15:00:00 25.8 14 Noroeste 37 Norte 0 914.8 -1.1 27
2017-09-11 14:00:00 24.5 18 Noroeste 36 Noroeste 0 915.3 -0.7 30
2017-09-11 13:00:00 22.8 13 Noroeste 30 Noroeste 0 915.6 -0.3 31
2017-09-11 12:00:00 20.3 16 Noroeste 35 Norte 0 915.9 0.2 32
2017-09-11 11:00:00 18.5 17 Norte 32 Noroeste 0 916 0.4 32
2017-09-11 10:00:00 16.7 14 Noroeste 23 Norte 0 915.9 0.5 35
2017-09-11 09:00:00 14.6 10 Noroeste 19 Noroeste 0 915.7 0.5 37
2017-09-11 08:00:00 12.6 9 Noroeste 16 Noroeste 0 915.6 0.3 39
2017-09-11 07:00:00 11.8 6 Norte 23 Norte 0 915.4 0.1 39
2017-09-11 06:00:00 13.4 15 Noroeste 27 Noroeste 0 915.2 -0.3 37
2017-09-11 05:00:00 13.4 14 Noroeste 24 Noroeste 0 915.3 -0.6 36
2017-09-11 04:00:00 13.5 13 Noroeste 24 Noroeste 0 915.3 -0.6 37
2017-09-11 03:00:00 13 13 Norte 25 Noroeste 0 915.5 -0.2 37
2017-09-11 02:00:00 14.1 14 Noroeste 32 Noroeste 0 915.9 0.8 36
2017-09-11 01:00:00 13.9 8 Noroeste 27 Noroeste 0 915.9 0.5 35
2017-09-11 00:00:00 14.9 11 Noroeste 36 Noroeste 0 915.7 0.8 34
2017-09-10 23:00:00 15.2 24 Noroeste 41 Noroeste 0 915.1 0.7 34
2017-09-10 22:00:00 15.5 14 Noroeste 25 Noroeste 0 915.4 1.4 33
2017-09-10 21:00:00 16.5 11 Noroeste 24 Noroeste 0 914.9 1.5 30
2017-09-10 20:00:00 18.2 18 Noroeste 45 Noroeste 0 914.4 0.8 28
2017-09-10 19:00:00 19.2 18 Noroeste 39 Noroeste 0 914 0.1 27
2017-09-10 18:00:00 19.1 24 Noroeste 47 Norte 0 913.4 -0.8 27
2017-09-10 17:00:00 19 24 Noroeste 51 Noroeste 0 913.6 -0.2 28
2017-09-10 16:00:00 18.3 26 Norte 50 Norte 0 913.9 -0.2 30
2017-09-10 15:00:00 18.1 23 Norte 46 Noroeste 0 914.2 0.1 33
2017-09-10 14:00:00 16.8 23 Noroeste 47 Norte 0 913.8 0.3 37
2017-09-10 13:00:00 14.8 27 Norte 46 Norte 0 914.1 1.3 40
2017-09-10 12:00:00 13.4 26 Norte 48 Norte 0 914.1 2 44
2017-09-10 11:00:00 11.9 28 Norte 45 Noroeste 0 913.5 2.2 49
2017-09-10 10:00:00 10.2 25 Norte 43 Norte 0 912.8 1.9 59
2017-09-10 09:00:00 9.2 27 Norte 42 Norte 0 912.1 1.8 62
2017-09-10 08:00:00 8.8 19 Norte 31 Norte 0 911.3 1 66
2017-09-10 07:00:00 8.9 16 Norte 27 Norte 0 910.9 1 65
2017-09-10 06:00:00 9.9 15 Norte 24 Norte 0 910.3 0.6 66
2017-09-10 05:00:00 10.3 12 Norte 24 Norte 0 910.3 0.7 65
2017-09-10 04:00:00 11.4 14 Norte 25 Norte 0 909.9 0.5 62
2017-09-10 03:00:00 11.5 15 Nordeste 28 Nordeste 0 909.7 0.8 62
2017-09-10 02:00:00 13.3 13 Nordeste 22 Nordeste 0 909.6 0.8 56
2017-09-10 01:00:00 15.7 9 Nordeste 24 Norte 0 909.4 0.8 37
2017-09-10 00:00:00 16.6 11 Norte 27 Norte 0 908.9 1 36
2017-09-09 23:00:00 16.9 12 Norte 23 Norte 0 908.8 1.2 37
2017-09-09 22:00:00 17.7 10 Norte 33 Norte 0 908.6 1.4 39
2017-09-09 21:00:00 18 23 Norte 40 Noroeste 0 907.9 0.7 36
2017-09-09 20:00:00 19.1 19 Norte 39 Norte 0 907.6 0.2 36
2017-09-09 19:00:00 19.7 26 Norte 48 Noroeste 0 907.2 -0.3 34
2017-09-09 18:00:00 20.5 28 Norte 52 Norte 0 907.2 -0.7 32
2017-09-09 17:00:00 20.5 26 Norte 48 Norte 0 907.4 -1.3 30
2017-09-09 16:00:00 22.7 22 Noroeste 41 Noroeste 0 907.5 -1.6 26
2017-09-09 15:00:00 21 21 Noroeste 40 Noroeste 0 907.9 -1.7 27
2017-09-09 14:00:00 20.9 29 Noroeste 45 Noroeste 0 908.7 -1.1 25
2017-09-09 13:00:00 19.9 27 Noroeste 42 Noroeste 0 909.1 -0.8 27
2017-09-09 12:00:00 19.7 24 Noroeste 43 Noroeste 0 909.6 -0.4 28
2017-09-09 11:00:00 20.5 27 Oeste 57 Norte 0 909.8 -0.1 27
2017-09-09 10:00:00 18.3 23 Noroeste 34 Oeste 0 909.9 0.1 33
2017-09-09 09:00:00 18.6 22 Oeste 38 Oeste 0 910 0 30
2017-09-09 08:00:00 18 13 Oeste 24 Oeste 0 909.9 -0.5 29
2017-09-09 07:00:00 18.5 15 Oeste 31 Noroeste 0 909.8 -1.2 29
2017-09-09 06:00:00 19.2 21 Oeste 32 Oeste 0 910 -1.6 28
2017-09-09 05:00:00 19 19 Oeste 33 Oeste 0 910.4 -1.9 30
2017-09-09 04:00:00 17.8 14 Noroeste 24 Noroeste 0 911 -1.9 33
2017-09-09 03:00:00 17 2 Noroeste 9 Oeste 0 911.6 -1.8 51
2017-09-09 02:00:00 17.2 0 Calma 5 Sudoeste 0 912.3 -1.1 69
2017-09-09 01:00:00 18 0 Calma 6 Sudeste 0 912.9 -0.3 79
2017-09-09 00:00:00 18.8 0 Calma 7 Este 0 913.4 0.5 77
2017-09-08 23:00:00 19.5 6 Sur 16 Sur 0 913.4 0.7 73
2017-09-08 22:00:00 20.5 11 Sur 19 Sur 0 913.2 0.7 66
2017-09-08 21:00:00 21.8 9 Sur 26 Sur 0 912.9 0.2 56
2017-09-08 20:00:00 23.8 17 Sudoeste 28 Sudoeste 0 912.7 -0.4 45
2017-09-08 19:00:00 26.8 15 Sudoeste 30 Sudoeste 0 912.5 -1.4 35
2017-09-08 18:00:00 29.3 7 Sudoeste 24 Sudoeste 0 912.7 -2 26
2017-09-08 17:00:00 29.7 9 Oeste 22 Sudoeste 0 913.1 -2.3 25
2017-09-08 16:00:00 28.6 5 Oeste 26 Noroeste 0 913.9 -2.3 25
2017-09-08 15:00:00 27.9 6 Noroeste 19 Oeste 0 914.7 -2 26
2017-09-08 14:00:00 26.9 5 Sudoeste 15 Sudoeste 0 915.4 -1.8 30
2017-09-08 13:00:00 24.9 4 Sudoeste 15 Sudoeste 0 916.2 -0.8 42
2017-09-08 12:00:00 22.8 4 Sur 14 Sudoeste 0 916.7 -0.2 53
2017-09-08 11:00:00 20.9 6 Sur 17 Sur 0 917.2 0.7 65
2017-09-08 10:00:00 18.8 13 Sur 18 Sur 0 917 0.5 75
2017-09-08 09:00:00 17.2 12 Sur 18 Sur 0 916.9 0.1 85
2017-09-08 08:00:00 16.7 8 Sur 14 Sur 0 916.5 -0.5 88
2017-09-08 07:00:00 16.7 8 Sur 13 Sur 0 916.5 -0.6 89
2017-09-08 06:00:00 17.1 9 Sur 12 Sudeste 0 916.8 -0.6 90
2017-09-08 05:00:00 16.8 10 Sudeste 15 Sudeste 0 917 -0.6 90
2017-09-08 04:00:00 16.6 13 Sudeste 21 Este 0 917.1 -0.5 90
2017-09-08 03:00:00 15.9 14 Este 18 Sudeste 0 917.4 -0.4 88
2017-09-08 02:00:00 16.8 11 Sudeste 17 Sudeste 0 917.6 -0.3 87
2017-09-08 01:00:00 17.5 8 Sur 13 Sur 0 917.6 -0.1 85
2017-09-08 00:00:00 18.1 8 Sudeste 16 Sur 0 917.8 1.1 82
2017-09-07 23:00:00 18.7 8 Sudeste 19 Sur 0 917.9 1.7 77
2017-09-07 22:00:00 19.7 8 Sur 15 Sur 0 917.7 1.7 67
2017-09-07 21:00:00 21.1 13 Sur 20 Sur 0 916.7 0.9 55
2017-09-07 20:00:00 23.1 13 Sur 20 Sur 0 916.2 0 44
2017-09-07 19:00:00 24.9 11 Sudoeste 18 Sudoeste 0 916 -0.9 38
2017-09-07 18:00:00 27 11 Sudoeste 26 Sudoeste 0 915.8 -1.4 33
2017-09-07 17:00:00 28.3 9 Sudoeste 18 Sudoeste 0 916.2 -1.7 32
2017-09-07 16:00:00 27.2 4 Oeste 14 Sudeste 0 916.9 -1.7 32
2017-09-07 15:00:00 26.1 3 Este 17 Sudeste 0 917.2 -1.7 36
2017-09-07 14:00:00 25.3 10 Sudoeste 23 Sudoeste 0 917.9 -1.1 41
2017-09-07 13:00:00 24 10 Sur 24 Sudoeste 0 918.6 -0.3 45
2017-09-07 12:00:00 22.2 14 Sur 23 Sur 0 918.9 0.2 55
2017-09-07 11:00:00 19.7 13 Sur 19 Sur 0 919 0.7 68
2017-09-07 10:00:00 17.6 15 Sur 22 Sur 0 918.9 0.6 82
2017-09-07 09:00:00 17 12 Sudeste 18 Sur 0 918.7 0.6 92
2017-09-07 08:00:00 16 9 Sudeste -- -- -- 918.3 -0.1 92
2017-09-07 07:00:00 15.7 7 Sudeste 18 Sudeste 0 918.3 -0.5 91
2017-09-07 06:00:00 16 15 Sudeste 26 Sudeste 1.7 918.1 -1 91
2017-09-07 05:00:00 16.8 12 Sudeste 21 Sudeste 0.7 918.4 -1.3 91
2017-09-07 04:00:00 17.6 12 Sudeste 21 Sudeste 0 918.8 -1.2 85
2017-09-07 03:00:00 17.8 17 Sur 24 Sudeste 0 919.1 -1 85
2017-09-07 02:00:00 18.5 16 Sudeste 27 Sur 0 919.7 -0.5 84
2017-09-07 01:00:00 18.6 15 Sudeste 22 Sudeste 0 920 -0.3 85
2017-09-07 00:00:00 19 16 Sudeste 23 Sudeste 0 920.1 0.4 82
2017-09-06 23:00:00 19.6 14 Sudeste 24 Sudeste 0 920.2 1.1 79
2017-09-06 22:00:00 20.1 18 Sudeste 33 Sudeste 0 920.3 1.6 75
2017-09-06 21:00:00 22.4 15 Sudeste 30 Sudeste 0 919.7 1 44
2017-09-06 20:00:00 24.4 18 Sur 28 Sur 0 919.1 -0.1 33
2017-09-06 19:00:00 27.1 15 Sur 31 Sur 0 918.7 -0.7 29
2017-09-06 18:00:00 28.9 16 Sur 27 Sur 0 918.7 -1.6 27
2017-09-06 17:00:00 29.7 12 Sudoeste 30 Sur 0 919.2 -1.9 26
2017-09-06 16:00:00 30.4 14 Sur 26 Sur 0 919.4 -2 27
2017-09-06 15:00:00 29.5 10 Sur 35 Sudoeste 0 920.3 -1.7 29
2017-09-06 14:00:00 28.5 12 Sur 20 Sur 0 921.1 -1 32
2017-09-06 13:00:00 27.7 5 Sur 15 Sudeste 0 921.4 -0.9 35
2017-09-06 12:00:00 26.1 3 Sur 12 Sudeste 0 922 -0.1 39
2017-09-06 11:00:00 24.2 7 Sudeste 11 Sudeste 0 922.1 0.3 46
2017-09-06 10:00:00 21 7 Sudeste 13 Sudeste 0 922.3 0.9 55
2017-09-06 09:00:00 17.2 8 Este 13 Sudeste 0 922.1 0.5 69
2017-09-06 08:00:00 15.9 10 Este 14 Este 0 921.8 0.3 70
2017-09-06 07:00:00 15.6 9 Sudeste 17 Este 0 921.4 -0.3 74
2017-09-06 06:00:00 15.7 14 Este 20 Sudeste 0 921.6 -0.4 73
2017-09-06 05:00:00 15.8 18 Este 22 Este 0 921.5 -0.8 72
2017-09-06 04:00:00 16.1 15 Este 19 Sudeste 0 921.7 -0.9 70
2017-09-06 03:00:00 16.8 12 Sudeste 18 Sudeste 0 922 -0.8 67
2017-09-06 02:00:00 17.4 8 Sudeste 20 Sudeste 0 922.3 -0.5 64
2017-09-06 01:00:00 17.9 10 Sudeste 19 Sudeste 0 922.6 0.4 61
2017-09-06 00:00:00 18.9 5 Sudeste 17 Sudeste 0 922.8 1.4 56
2017-09-05 23:00:00 19.8 8 Sur 16 Sudeste 0 922.8 1.8 52
2017-09-05 22:00:00 20.9 4 Sudoeste 16 Sur 0 922.2 1.4 48
2017-09-05 21:00:00 22.6 8 Sur 21 Sur 0 921.4 0.9 43
2017-09-05 20:00:00 24.9 14 Sur 24 Sur 0 921 0.2 35
2017-09-05 19:00:00 27.2 13 Sur 23 Sur 0 920.8 -0.4 31
2017-09-05 18:00:00 29.2 9 Sudoeste 22 Sudoeste 0 920.5 -1.3 27
2017-09-05 17:00:00 29.3 5 Sudoeste 21 Sur 0 920.8 -1.5 26
2017-09-05 16:00:00 28.9 7 Sur 22 Sur 0 921.2 -1.5 28
2017-09-05 15:00:00 27.4 13 Sur 28 Sudoeste 0 921.8 -1.2 34
2017-09-05 14:00:00 26.2 14 Sur 35 Sur 0 922.3 -0.7 39
2017-09-05 13:00:00 24.8 14 Sur 27 Sur 0 922.7 0 44
2017-09-05 12:00:00 23 17 Sur 29 Sur 0 923 0.5 52
2017-09-05 11:00:00 20.8 19 Sur 27 Sur 0 923 1 62
2017-09-05 10:00:00 18.1 18 Sur 28 Sur 0 922.7 1 75
2017-09-05 09:00:00 16 19 Sur 29 Sur 0 922.5 1.2 88
2017-09-05 08:00:00 15.2 13 Sudeste 21 Sudeste 0 922 1 91
2017-09-05 07:00:00 15.3 17 Sudeste 26 Sudeste 0 921.7 0.6 91
2017-09-05 06:00:00 15.7 14 Sudeste 21 Sudeste 0 921.3 0.2 91
2017-09-05 05:00:00 15.5 15 Sudeste 19 Sudeste 0 921 0 90
2017-09-05 04:00:00 15.7 13 Sudeste 21 Sudeste 0 921.1 0.2 88
2017-09-05 03:00:00 16.2 14 Sudeste 24 Sudeste 0 921.1 0.5 88
2017-09-05 02:00:00 16.3 16 Sudeste 24 Sudeste 0 921 0.8 87
2017-09-05 01:00:00 16.6 14 Sudeste 26 Sudeste 0 920.9 1.3 84
2017-09-05 00:00:00 17.1 16 Sudeste 27 Sudeste 0 920.6 2 82
2017-09-04 23:00:00 17.8 20 Sudeste 32 Este 0 920.2 3 76
2017-09-04 22:00:00 18.9 19 Sudeste 35 Sudeste 0 919.6 2.9 65
2017-09-04 21:00:00 21.2 18 Sudeste 28 Sudeste 0 918.6 2.4 50
2017-09-04 20:00:00 26.2 2 Noroeste 13 Oeste 0 917.2 1.2 20
2017-09-04 19:00:00 26.9 5 Norte 23 Noroeste 0 916.7 0.5 19
2017-09-04 18:00:00 27.6 9 Noroeste 28 Noroeste 0 916.2 0 19
2017-09-04 17:00:00 27.5 10 Noroeste 27 Oeste 0 916 -0.3 19
2017-09-04 16:00:00 26.1 14 Noroeste 31 Noroeste 0 916.2 -0.1 20
2017-09-04 15:00:00 26.4 13 Noroeste 31 Noroeste 0 916.2 -0.2 21
2017-09-04 14:00:00 25.4 10 Norte 28 Noroeste 0 916.3 0 21
2017-09-04 13:00:00 24.5 14 Noroeste 30 Noroeste 0 916.3 0.5 23
2017-09-04 12:00:00 23.3 12 Oeste 24 Noroeste 0 916.4 1 29
2017-09-04 11:00:00 20.6 16 Noroeste 28 Noroeste 0 916.3 1 42
2017-09-04 10:00:00 19.6 17 Noroeste 25 Noroeste 0 915.8 1 44
2017-09-04 09:00:00 17.9 17 Noroeste 24 Oeste 0 915.4 0.7 51
2017-09-04 08:00:00 17.5 13 Noroeste -- -- -- 915.3 0.5 49
2017-09-04 07:00:00 17.9 14 Noroeste 20 Noroeste 0 914.8 -0.2 44
2017-09-04 06:00:00 17.4 10 Oeste 15 Oeste 0 914.7 -0.6 48
2017-09-04 05:00:00 17.6 5 Oeste 17 Noroeste 0 914.8 -0.7 53
2017-09-04 04:00:00 19.3 15 Noroeste 24 Oeste 0 915 -0.7 50
2017-09-04 03:00:00 18.9 9 Noroeste 13 Oeste 0 915.3 -0.5 56
2017-09-04 02:00:00 18.8 0 Calma 9 Sudeste 0 915.5 -0.2 61
2017-09-04 01:00:00 19 5 Sudeste 9 Sudeste 0 915.7 0.1 61
2017-09-04 00:00:00 20 0 Calma 8 Sur 0 915.8 0.7 56
2017-09-03 23:00:00 20.7 0 Calma 5 Sudeste 0 915.7 0.9 52
2017-09-03 22:00:00 21 0 Calma 13 Sur 0 915.6 0.8 35
2017-09-03 21:00:00 22.5 8 Norte 18 Noroeste 0 915.1 0.5 26
2017-09-03 20:00:00 25.5 11 Noroeste 28 Noroeste 0 914.8 -0.2 23
2017-09-03 19:00:00 26.9 17 Noroeste 36 Noroeste 0 914.8 -1 22
2017-09-03 18:00:00 27.6 14 Noroeste 35 Noroeste 0 914.6 -1.6 24
2017-09-03 17:00:00 27.3 16 Noroeste 34 Noroeste 0 915 -1.8 26
2017-09-03 16:00:00 26.5 20 Oeste 36 Oeste 0 915.8 -1.8 29
2017-09-03 15:00:00 26.5 17 Oeste 37 Oeste 0 916.2 -2.2 29
2017-09-03 14:00:00 25.7 18 Noroeste 31 Noroeste 0 916.8 -2.1 31
2017-09-03 13:00:00 23.6 10 Oeste 26 Oeste 0 917.6 -1.2 41
2017-09-03 12:00:00 21.7 10 Sudoeste 17 Sudoeste 0 918.4 0 57
2017-09-03 11:00:00 18 5 Sur 8 Sur 0 918.9 0.3 90
2017-09-03 10:00:00 15.8 4 Sudeste 9 Sur 0 918.8 0.5 92
2017-09-03 09:00:00 14.9 6 Sudeste 11 Sudeste 0.1 918.4 -0.2 92
2017-09-03 08:00:00 14.1 6 Sudeste 16 Este 0 918.6 -0.4 92
2017-09-03 07:00:00 13.4 10 Este 15 Sudeste 0 918.3 -1.2 92
2017-09-03 06:00:00 14.4 6 Sudeste 11 Este 0.1 918.6 -1.3 92
2017-09-03 05:00:00 14.6 7 Sudeste 12 Este 0 919 -1.2 92
2017-09-03 04:00:00 14 10 Este 13 Sudeste 0 919.5 -1.3 90
2017-09-03 03:00:00 14.5 9 Sudeste 12 Sudeste 0 919.9 -1.3 89
2017-09-03 02:00:00 14.7 10 Sudeste 13 Sudeste 0 920.2 -0.6 87
2017-09-03 01:00:00 15.6 5 Sur 11 Sur 0 920.8 0.3 85
2017-09-03 00:00:00 16.3 7 Sudeste 10 Sur 0 921.2 1.4 82
2017-09-02 23:00:00 17.4 5 Sur 16 Sur 0 920.8 1.6 75
2017-09-02 22:00:00 18.9 6 Sur 14 Sur 0 920.5 1.3 62
2017-09-02 21:00:00 20 0 Calma 13 Norte 0 919.8 0.4 32
2017-09-02 20:00:00 23.9 7 Norte 21 Norte 0 919.2 -0.5 25
2017-09-02 19:00:00 24.8 8 Noroeste 25 Norte 0 919.2 -1 26
2017-09-02 18:00:00 25 12 Noroeste 24 Noroeste 0 919.4 -1.4 30
2017-09-02 17:00:00 24.4 11 Noroeste 28 Noroeste 0 919.7 -1.7 33
2017-09-02 16:00:00 23.2 10 Norte 26 Oeste 0 920.2 -1.8 41
2017-09-02 15:00:00 22.6 6 Noroeste 19 Oeste 0 920.8 -1.7 46
2017-09-02 14:00:00 22.7 6 Sudoeste 18 Sudoeste 0 921.4 -1.1 54
2017-09-02 13:00:00 20.8 8 Sudoeste 16 Sudoeste 0 922 0 64
2017-09-02 12:00:00 18.6 4 Sur 11 Sudeste 0 922.5 1 72
2017-09-02 11:00:00 17.3 7 Sudeste 14 Sudeste 0 922.5 1.5 78
2017-09-02 10:00:00 16.1 9 Sudeste 13 Sudeste 0 922 1.5 90
2017-09-02 09:00:00 15 11 Este 19 Sudeste 0 921.5 1.2 91
2017-09-02 08:00:00 14.6 14 Este 19 Este 0 921 0.5 92
2017-09-02 07:00:00 14.4 14 Sudeste 25 Este 0 920.5 0.3 92
2017-09-02 06:00:00 14.9 18 Este 26 Sudeste 0 920.3 0 92
2017-09-02 05:00:00 15.5 20 Este 26 Este 0 920.5 0.2 92
2017-09-02 04:00:00 15.6 16 Sudeste 23 Sudeste 0 920.2 0.2 92
2017-09-02 03:00:00 16.2 12 Sudeste 21 Este 0 920.3 0.7 91
2017-09-02 02:00:00 16.2 12 Sudeste 21 Sudeste 0 920.3 0.9 91
2017-09-02 01:00:00 16.2 12 Sudeste 26 Este 0.2 920 1.4 91
2017-09-02 00:00:00 16.1 19 Sudeste 32 Sudeste 0.9 919.6 1.8 91
2017-09-01 23:00:00 16.5 18 Sudeste 26 Sudeste 0 919.4 2 89
2017-09-01 22:00:00 16.8 15 Sudeste 19 Sudeste 0 918.6 1.5 89
2017-09-01 21:00:00 17.3 13 Sudeste 23 Sudeste 0 917.8 0.9 87
2017-09-01 20:00:00 18.4 15 Sudeste 28 Sudeste 11.4 917.4 0.6 85
2017-09-01 19:00:00 20.8 18 Sudeste 29 Sudeste 0 917.1 -0.4 60
2017-09-01 18:00:00 24.5 15 Sudeste 32 Sur 0 916.9 -1.2 47
2017-09-01 17:00:00 23.7 17 Sudeste 31 Sudeste 0 916.8 -1.9 46
2017-09-01 16:00:00 24.8 16 Sudeste 32 Sudeste 0 917.5 -1.6 46
2017-09-01 15:00:00 24 17 Sudeste 30 Sudeste 0 918.1 -1.3 49
2017-09-01 14:00:00 23.4 16 Sudeste 26 Sudeste 0 918.7 -0.9 48
2017-09-01 13:00:00 23.6 17 Sudeste 34 Sudeste 0 919.1 -0.2 50
2017-09-01 12:00:00 22.2 12 Sudeste 25 Sudeste 0 919.4 0.4 55
2017-09-01 11:00:00 20.2 15 Sudeste 22 Sudeste 0 919.6 1 68
2017-09-01 10:00:00 17.8 15 Sudeste 22 Sudeste 0 919.3 0.9 83
2017-09-01 09:00:00 15.5 11 Sudeste 17 Sudeste 0 919 0.8 92
2017-09-01 08:00:00 14.4 12 Sudeste 19 Sudeste 0 918.6 0.1 92
2017-09-01 07:00:00 14.3 10 Este 13 Este 0 918.4 -0.1 91
2017-09-01 06:00:00 14.9 10 Este 17 Este 0 918.2 -0.6 91
2017-09-01 05:00:00 15 11 Este 17 Sudeste 0 918.5 -0.6 90
2017-09-01 04:00:00 15.8 12 Sudeste 21 Sudeste 0 918.5 -0.5 89
2017-09-01 03:00:00 16.5 14 Sudeste 26 Sudeste 0 918.8 -0.1 88
2017-09-01 02:00:00 16.5 15 Sudeste 28 Sudeste 0 919.1 0.5 88
2017-09-01 01:00:00 16.7 21 Sudeste 33 Sudeste 0 919 0.6 87
2017-09-01 00:00:00 17.2 20 Sudeste 28 Sudeste 0 918.9 1.2 85
2017-08-31 23:00:00 17.8 13 Sudeste 18 Sudeste 0 918.6 1.6 75
2017-08-31 22:00:00 19.1 12 Sudeste 17 Sudeste 0 918.4 1.8 68
2017-08-31 21:00:00 20.7 9 Sur 17 Sur 0 917.7 1.2 53
2017-08-31 20:00:00 22.8 5 Sur 13 Sur 0 917 0.3 44
2017-08-31 19:00:00 23.4 7 Sur 17 Sudeste 0 916.6 -0.2 42
2017-08-31 18:00:00 24.2 10 Sudeste 20 Sudeste 0 916.5 -0.8 40
2017-08-31 17:00:00 25 12 Sudeste 23 Sur 0 916.7 -1 37
2017-08-31 16:00:00 25.9 8 Sudeste 23 Sudeste 0 916.8 -1.6 35
2017-08-31 15:00:00 25.5 3 Nordeste 26 Sur 0 917.3 -1.5 36
2017-08-31 14:00:00 25.3 7 Sudeste 15 Sur 0 917.7 -1.2 39
2017-08-31 13:00:00 23.7 4 Sudeste 12 Sur 0 918.4 0 43
2017-08-31 12:00:00 21.7 4 Sudeste 10 Sur 0 918.8 1 55
2017-08-31 11:00:00 17.7 2 Sudoeste 6 Sudoeste 0 918.9 1.8 65
2017-08-31 10:00:00 16.9 0 Calma 7 Sudeste 0 918.4 1.4 71
2017-08-31 09:00:00 15.9 0 Calma 9 Este 0 917.8 1.3 73
2017-08-31 08:00:00 15.7 0 Calma 8 Norte 0 917.1 0.5 66
2017-08-31 07:00:00 15.6 0 Calma 4 Nordeste 0 917 0.3 69
2017-08-31 06:00:00 15.7 0 Calma 6 Sudeste 0 916.5 -0.4 71
2017-08-31 05:00:00 16.1 0 Calma 6 Noroeste 0 916.6 -0.3 70
2017-08-31 04:00:00 15.8 2 Nordeste 9 Este 0 916.7 -0.2 74
2017-08-31 03:00:00 16.5 0 Calma 5 Este 0 916.9 0.2 72
2017-08-31 02:00:00 16.3 3 Este 8 Sudeste 0 916.9 0 75
2017-08-31 01:00:00 16.8 3 Sudeste 6 Sudeste 0 916.9 0.2 75
2017-08-31 00:00:00 16.4 3 Este 7 Sudeste 0 916.7 0.4 72
2017-08-30 23:00:00 17 6 Sudeste 8 Sudeste 0 916.9 0.8 70
2017-08-30 22:00:00 18.2 0 Calma 8 Sur 0 916.7 0.7 65
2017-08-30 21:00:00 18.8 5 Sur 11 Sur 0 916.3 0.1 61
2017-08-30 20:00:00 20 0 Calma 9 Sudoeste 0 916.1 -0.4 51
2017-08-30 19:00:00 21.1 4 Oeste 12 Sudoeste 0 916 -1 49
2017-08-30 18:00:00 21 4 Sudoeste 14 Sur 0 916.2 -1.2 50
2017-08-30 17:00:00 20.3 5 Sur 14 Oeste 0 916.5 -1.7 53
2017-08-30 16:00:00 20.1 10 Sur 21 Sudoeste 0 917 -0.6 60
2017-08-30 15:00:00 18.7 8 Sudoeste 20 Sur 0 917.4 -1.1 65
2017-08-30 14:00:00 15.7 14 Sudoeste 19 Sudoeste 0 918.2 0.1 82
2017-08-30 13:00:00 15.1 7 Sudoeste 20 Sudoeste 0 917.6 0 88
2017-08-30 12:00:00 14.9 7 Sudoeste 14 Sur 0 918.5 1.3 90
2017-08-30 11:00:00 14.5 4 Sur 10 Sudoeste 0 918.1 1.5 91
2017-08-30 10:00:00 14.2 2 Sur 11 Sudoeste 0 917.6 1.4 92
2017-08-30 09:00:00 13.6 3 Sudoeste 8 Sudoeste 0 917.2 0.4 92
2017-08-30 08:00:00 13.4 0 Calma 6 Sudeste 0 916.6 0.2 92
2017-08-30 07:00:00 13.4 5 Sudeste 17 Sur 0 916.2 -0.4 92
2017-08-30 06:00:00 13.5 10 Sur 17 Sur 0 916.8 0.3 92
2017-08-30 05:00:00 13.6 7 Sudeste 14 Sudeste 0 916.4 -0.3 92
2017-08-30 04:00:00 13.6 8 Sur 12 Sudeste 0 916.6 1.1 91
2017-08-30 03:00:00 13.8 9 Sur 22 Sur 0 916.5 -1.3 92
2017-08-30 02:00:00 13.9 14 Sur 33 Sur 0 916.7 0.6 92
2017-08-30 01:00:00 14 21 Sudeste 41 Sur 0.4 915.5 -0.8 92
2017-08-30 00:00:00 14.4 23 Sur 41 Sur 0 917.8 2.7 91
2017-08-29 23:00:00 14.2 10 Sur 31 Sudeste 1 916.1 0.9 91
2017-08-29 22:00:00 14.2 8 Sudeste 20 Este 0.2 916.3 1.7 88
2017-08-29 21:00:00 13.7 8 Sudeste 21 Sudeste 0 915.1 -0.2 88
2017-08-29 20:00:00 13.9 16 Sudeste 41 Sudeste 0.2 915.2 0.3 85
2017-08-29 19:00:00 13.7 26 Sur 53 Sur 3.1 914.6 -0.6 87
2017-08-29 18:00:00 13.4 28 Sur 57 Sudoeste 2.3 915.3 -0.5 89
2017-08-29 17:00:00 13.9 28 Sur 49 Sudeste 0.7 914.9 -0.6 85
2017-08-29 16:00:00 14.5 34 Sur 54 Sur 0.8 915.2 -0.5 91
2017-08-29 15:00:00 15.8 27 Sur 45 Sur 0 915.8 0 83
2017-08-29 14:00:00 17.6 26 Sur 41 Sur 0 915.5 -0.3 71
2017-08-29 13:00:00 20.1 20 Sudeste 31 Sur 0 915.7 0 66
2017-08-29 12:00:00 18.7 19 Sudeste 29 Sur 0 915.8 0.4 68
2017-08-29 11:00:00 19.3 20 Sur 28 Sur 0 915.8 0.9 66
2017-08-29 10:00:00 16.6 13 Sudeste 20 Sudeste 0 915.7 0.9 84
2017-08-29 09:00:00 15.4 9 Sudeste 17 Sudeste 0 915.4 0.2 91
2017-08-29 08:00:00 14.2 12 Este 18 Este 0 914.9 -0.4 91
2017-08-29 07:00:00 14.4 12 Este 18 Sudeste 0 914.8 0.5 91
2017-08-29 06:00:00 14.4 6 Sudeste 13 Sudeste 0 915.2 -0.2 92
2017-08-29 05:00:00 13.7 5 Sudeste 12 Norte 0.1 915.3 -0.3 91
2017-08-29 04:00:00 13.4 9 Este 23 Sudeste 6.9 914.3 -1.5 89
2017-08-29 03:00:00 14.6 0 Calma 7 Sudeste 0 915.4 -0.6 72
2017-08-29 02:00:00 15.4 6 Sudeste 9 Sudeste 0 915.6 -0.4 69
2017-08-29 01:00:00 16.2 2 Nordeste 15 Este 0 915.8 -0.2 66
2017-08-29 00:00:00 17.1 9 Este 28 Nordeste 0 916 -0.1 66
2017-08-28 23:00:00 16.7 17 Nordeste 31 Nordeste 0 916 -0.1 67
2017-08-28 22:00:00 16.4 17 Nordeste 32 Nordeste 0 916 0 66
2017-08-28 21:00:00 17.1 14 Nordeste 30 Nordeste 0 916.1 0.3 62
2017-08-28 20:00:00 18 20 Norte 40 Noroeste 0 916.1 0.2 58
2017-08-28 19:00:00 22.9 16 Sur 25 Sur 0 916 0.5 49
2017-08-28 18:00:00 23.2 20 Sudoeste 35 Sur 0 915.8 -0.3 51
2017-08-28 17:00:00 23 26 Sur 37 Sur 0 915.9 -0.8 56
2017-08-28 16:00:00 23.3 17 Sur 35 Sur 0 915.5 -1.2 52
2017-08-28 15:00:00 24.4 19 Sur 33 Sur 0 916.1 -1.4 48
2017-08-28 14:00:00 23.9 22 Sur 37 Sur 0 916.7 0.2 49
2017-08-28 13:00:00 25.2 22 Sur 43 Sur 0 916.7 1 49
2017-08-28 12:00:00 23.5 29 Sur 41 Sur 0 917.5 1.9 51
2017-08-28 11:00:00 24.7 20 Sur 29 Sur 0 916.5 0.8 49
2017-08-28 10:00:00 22.4 18 Sudeste 26 Este 0 915.7 -0.1 64
2017-08-28 09:00:00 18.6 16 Este 27 Sudeste 0 915.6 -2.3 76
2017-08-28 08:00:00 18.1 18 Sudeste 39 Sudeste 0 915.7 -1.7 81
2017-08-28 07:00:00 18.2 22 Sudeste 35 Sudeste 0 915.8 -1.2 85
2017-08-28 06:00:00 18.3 18 Sur 30 Sudoeste 0 917.9 0.8 85
2017-08-28 05:00:00 18.3 12 Sudeste 20 Sur 0 917.4 -0.1 80
2017-08-28 04:00:00 18.2 14 Sudeste 18 Sudeste 0 917 -0.7 74
2017-08-28 03:00:00 18.5 13 Sudeste 25 Sudeste 0 917.1 -0.5 72
2017-08-28 02:00:00 18.2 10 Sudeste 19 Sudeste 0 917.5 0.4 65
2017-08-28 01:00:00 18.9 7 Sur 17 Sudeste 0 917.7 0.5 60
2017-08-28 00:00:00 19.5 12 Sudeste 27 Sudeste 0 917.6 0.4 55
2017-08-27 23:00:00 19.7 19 Sudeste 26 Sudeste 0 917.1 0.1 54
2017-08-27 22:00:00 20 13 Este 21 Este 0 917.2 -1.4 52
2017-08-27 21:00:00 21.4 6 Este 24 Sudeste 0 917.2 -1 51
2017-08-27 20:00:00 21.7 8 Nordeste 28 Norte 0 917 -1.2 54
2017-08-27 19:00:00 21.8 13 Noroeste 35 Noroeste 0 918.6 0.4 52
2017-08-27 18:00:00 23 21 Noroeste 46 Norte 0 918.2 0.6 47
2017-08-27 17:00:00 22.5 24 Noroeste 56 Noroeste 0 918.2 0 49
2017-08-27 16:00:00 26.9 13 Oeste 39 Noroeste 0 918.2 0.4 35
2017-08-27 15:00:00 27.9 7 Sudeste 19 Sur 0 917.6 -0.4 35
2017-08-27 14:00:00 25.7 9 Sur 27 Sudoeste 0 918.2 0.7 39
2017-08-27 13:00:00 26.3 18 Sur 27 Sur 0 917.8 0.4 36
2017-08-27 12:00:00 23.5 14 Sur 23 Sur 0 918 1 41
2017-08-27 11:00:00 23.7 12 Sudeste 21 Sudeste 0 917.5 0.8 49
2017-08-27 10:00:00 21.8 6 Sudeste 21 Este 0 917.4 0.6 65
2017-08-27 09:00:00 19.2 10 Este 14 Este 0 917 0.1 75
2017-08-27 08:00:00 18.3 14 Sudeste 24 Sudeste 0 916.7 -0.4 83
2017-08-27 07:00:00 18.2 15 Sudeste 21 Sudeste 0 916.8 -0.4 82
2017-08-27 06:00:00 18.4 9 Sudeste 22 Sur 0 916.9 -0.6 79
2017-08-27 05:00:00 18.7 15 Sudeste 23 Sudeste 0 917.1 0.1 82
2017-08-27 04:00:00 18.5 14 Sudeste 20 Sudeste 0 917.2 -0.9 82
2017-08-27 03:00:00 19.1 0 Calma 37 Sudeste 0 917.5 -2 69
2017-08-27 02:00:00 20.3 12 Este 26 Este 0 917 -1.2 68
2017-08-27 01:00:00 20.1 18 Este 27 Sudeste 0.1 918.1 2.5 74
2017-08-27 00:00:00 22.1 9 Sur 40 Oeste 0 919.5 3.5 58
2017-08-26 23:00:00 22.6 5 Sudoeste 27 Sudoeste 0 918.2 1.2 56
2017-08-26 22:00:00 24.1 17 Sudeste 22 Este 0 915.6 -0.7 43
2017-08-26 21:00:00 23.7 5 Este 32 Sudoeste 0 916 0 56
2017-08-26 20:00:00 24.8 26 Sur 41 Sur 0 917 1 48
2017-08-26 19:00:00 27.2 10 Sudoeste 30 Sudoeste 0 916.3 0.1 37
2017-08-26 18:00:00 28.3 13 Sudoeste 24 Sur 0 916 -0.6 32
2017-08-26 17:00:00 29.2 11 Sur 26 Sur 0 916 -0.8 28
2017-08-26 16:00:00 30.7 11 Sudeste 22 Sudeste 0 916.2 -1.1 25
2017-08-26 15:00:00 32.7 8 Sudeste 23 Este 0 916.6 -0.9 24
2017-08-26 14:00:00 32.1 7 Sudeste 23 Sur 0 916.8 -1 24
2017-08-26 13:00:00 31.2 13 Sur 22 Sudoeste 0 917.3 -0.1 25
2017-08-26 12:00:00 29.9 6 Sur 17 Sudoeste 0 917.5 0.3 32
2017-08-26 11:00:00 26.7 10 Sudoeste 20 Sur 0 917.8 0.4 35
2017-08-26 10:00:00 24.5 13 Sudeste 24 Sudeste 0 917.4 0.2 39
2017-08-26 09:00:00 20.2 17 Sudeste 24 Sudeste 0 917.2 0.1 54
2017-08-26 08:00:00 18.5 18 Este 24 Sudeste 0 917.4 -0.4 62
2017-08-26 07:00:00 18.9 18 Sudeste 23 Sudeste 0 917.2 -0.5 67
2017-08-26 06:00:00 18.8 16 Sudeste 23 Sudeste 0 917.1 -0.9 71
2017-08-26 05:00:00 19.8 15 Sudeste 21 Sudeste 0 917.8 -0.4 68
2017-08-26 04:00:00 20.1 13 Sudeste 23 Sudeste 0 917.7 -0.6 73
2017-08-26 03:00:00 20.6 15 Sudeste 22 Sudeste 0 918 -0.2 70
2017-08-26 02:00:00 21.5 17 Sudeste 23 Sudeste 0 918.2 0 62
2017-08-26 01:00:00 21.8 17 Sudeste 23 Sudeste 0 918.3 0.2 56
2017-08-26 00:00:00 22.2 16 Sudeste 26 Sudeste 0 918.2 0.3 52
2017-08-25 23:00:00 22.1 17 Sudeste 26 Sudeste 0 918.2 0.7 46
2017-08-25 22:00:00 22.9 16 Sudeste 22 Sudeste 0 918.1 1.2 43
2017-08-25 21:00:00 24.8 9 Nordeste 20 Sur 0 917.9 1.5 39
2017-08-25 20:00:00 26.6 15 Sur 32 Sur 0 917.5 1.2 35
2017-08-25 19:00:00 29.5 11 Este 35 Sudoeste 0 916.9 0.2 31
2017-08-25 18:00:00 30.2 17 Sur 36 Sur 0 916.4 -0.7 26
2017-08-25 17:00:00 31.8 26 Sur 44 Sur 0 916.3 -1.5 23
2017-08-25 16:00:00 33.6 23 Sur 37 Sur 0 916.7 -1.4 23
2017-08-25 15:00:00 33.6 21 Sur 37 Sudeste 0 917.1 -1.3 24
2017-08-25 14:00:00 32 15 Sudeste 26 Sudeste 0 917.8 -0.5 25
2017-08-25 13:00:00 31.6 12 Sudeste 22 Sudeste 0 918.1 -0.2 28
2017-08-25 12:00:00 29.7 14 Sudeste 21 Sudeste 0 918.4 0 30
2017-08-25 11:00:00 27.4 9 Sudeste 16 Sur 0 918.3 0.3 35
2017-08-25 10:00:00 24 6 Sudeste 10 Sudeste 0 918.3 0.4 39
2017-08-25 09:00:00 19.7 7 Sudeste 13 Sudeste 0 918.4 0.6 46
2017-08-25 08:00:00 17.6 10 Sudeste 16 Este 0 918 -0.1 46
2017-08-25 07:00:00 17.8 10 Sudeste 15 Sudeste 0 917.9 -0.5 46
2017-08-25 06:00:00 17.9 9 Sudeste 15 Este 0 917.8 -0.9 46
2017-08-25 05:00:00 18.2 12 Sudeste 19 Este 0 918.1 -0.9 43
2017-08-25 04:00:00 18.4 10 Este 18 Sudeste 0 918.4 -0.5 42
2017-08-25 03:00:00 19.1 10 Sudeste 18 Sudeste 0 918.7 0.1 41
2017-08-25 02:00:00 19.9 11 Sudeste 20 Sudeste 0 919 0.4 40
2017-08-25 01:00:00 20 11 Sudeste 18 Sudeste 0 918.9 0.9 37
2017-08-25 00:00:00 20.9 14 Sudeste 21 Sudeste 0 918.6 1.2 38
2017-08-24 23:00:00 22.1 14 Sudeste 23 Sudeste 0 918.6 1.8 39
2017-08-24 22:00:00 23.6 13 Sudeste 24 Sur 0 918 1.4 38
2017-08-24 21:00:00 25.4 9 Sur 28 Sur 0 917.4 0.7 34
2017-08-24 20:00:00 28.2 18 Sur 30 Sur 0 916.8 -0.2 29
2017-08-24 19:00:00 30.6 20 Sur 34 Sur 0 916.6 -0.6 26
2017-08-24 18:00:00 32.1 21 Sur 41 Sur 0 916.7 -1 23
2017-08-24 17:00:00 32.8 18 Sur 33 Sudeste 0 917 -0.8 22
2017-08-24 16:00:00 32.9 19 Sur 33 Sur 0 917.2 -1.2 22
2017-08-24 15:00:00 33 17 Sur 31 Sur 0 917.7 -1.1 22
2017-08-24 14:00:00 32.1 16 Sur 29 Sur 0 917.8 -0.9 22
2017-08-24 13:00:00 30.6 18 Sur 29 Sur 0 918.4 -0.2 22
2017-08-24 12:00:00 28.9 18 Sur 26 Sur 0 918.8 0.3 22
2017-08-24 11:00:00 26.9 16 Sur 27 Sudeste 0 918.7 0.5 24
2017-08-24 10:00:00 24.1 13 Sudeste 22 Sudeste 0 918.6 0.8 29
2017-08-24 09:00:00 19.8 12 Sudeste 21 Este 0 918.5 0.8 35
2017-08-24 08:00:00 18.4 9 Sudeste 19 Sudeste 0 918.2 0.6 36
2017-08-24 07:00:00 17.8 11 Sudeste 19 Sudeste 0 917.8 -0.1 39
2017-08-24 06:00:00 18.1 12 Sudeste 22 Sur 0 917.7 -0.2 39
2017-08-24 05:00:00 18.4 14 Sudeste 25 Sudeste 0 917.6 -0.4 36
2017-08-24 04:00:00 17.6 15 Sudeste 20 Este 0 917.9 -0.4 36
2017-08-24 03:00:00 18.9 13 Sudeste 23 Sudeste 0 917.9 -0.4 35
2017-08-24 02:00:00 19.2 17 Sudeste 29 Sudeste 0 918 -0.2 37
2017-08-24 01:00:00 19.9 15 Sudeste 26 Sudeste 0 918.3 0.7 36
2017-08-24 00:00:00 21 15 Sudeste 29 Sudeste 0 918.3 1.2 33
2017-08-23 23:00:00 21.8 19 Sudeste 29 Sudeste 0 918.2 1.3 29
2017-08-23 22:00:00 23.8 15 Sudeste 26 Sur 0 917.6 1.1 28
2017-08-23 21:00:00 25.6 15 Sur 31 Sur 0 917.1 0.5 26
2017-08-23 20:00:00 28.2 22 Sur 40 Sur 0 916.9 0 22
2017-08-23 19:00:00 30 27 Sur 40 Sur 0 916.5 -0.6 19
2017-08-23 18:00:00 31.4 25 Sur 40 Sur 0 916.6 -0.8 19
2017-08-23 17:00:00 32.5 24 Sur 39 Sur 0 916.9 -1.4 19
2017-08-23 16:00:00 32.5 23 Sur 40 Sur 0 917.1 -1.3 20
2017-08-23 15:00:00 32.6 19 Sur 35 Sur 0 917.4 -1.1 21
2017-08-23 14:00:00 31.2 22 Sur 38 Sudoeste 0 918.3 -0.1 22
2017-08-23 13:00:00 30.7 18 Sur 30 Sur 0 918.4 0 25
2017-08-23 12:00:00 29.2 18 Sur 25 Sudoeste 0 918.5 0.3 29
2017-08-23 11:00:00 26.9 13 Sur 20 Sur 0 918.4 0.7 40
2017-08-23 10:00:00 23.5 5 Sur 15 Sur 0 918.4 0.9 52
2017-08-23 09:00:00 19.8 7 Sudeste 17 Este 0 918.2 0.7 64
2017-08-23 08:00:00 17.5 15 Este 19 Sudeste 0 917.7 0.2 68
2017-08-23 07:00:00 17.5 9 Sudeste 13 Sudeste 0 917.5 -0.4 68
2017-08-23 06:00:00 18 8 Sudeste 19 Sudeste 0 917.5 -0.5 66
2017-08-23 05:00:00 17.9 13 Sudeste 23 Este 0 917.5 -0.8 64
2017-08-23 04:00:00 18.1 13 Sudeste 18 Sudeste 0 917.9 -0.5 64
2017-08-23 03:00:00 18.2 14 Sudeste 21 Sudeste 0 918 -0.2 63
2017-08-23 02:00:00 18.9 15 Sudeste 19 Este 0 918.3 0.2 59
2017-08-23 01:00:00 19.5 12 Sudeste 20 Sudeste 0 918.4 0.7 58
2017-08-23 00:00:00 20.6 13 Sudeste 22 Sur 0 918.2 1.2 53
2017-08-22 23:00:00 21.8 10 Sur 20 Sur 0 918.1 1.6 46
2017-08-22 22:00:00 23.4 13 Sur 28 Sur 0 917.7 1.2 41
2017-08-22 21:00:00 25.8 17 Sur 28 Sur 0 917 0.1 35
2017-08-22 20:00:00 29.5 15 Sur 26 Sur 0 916.5 -0.7 26
2017-08-22 19:00:00 31.8 17 Sur 23 Sur 0 916.5 -1.2 23
2017-08-22 18:00:00 33.2 12 Sur 25 Sudeste 0 916.9 -1.4 24
2017-08-22 17:00:00 33.3 5 Sur 23 Sur 0 917.2 -1.5 24
2017-08-22 16:00:00 32.8 14 Sur 24 Sur 0 917.7 -1.4 25
2017-08-22 15:00:00 32 6 Sudeste 22 Sudeste 0 918.3 -1.4 26
2017-08-22 14:00:00 31 11 Sur 24 Sur 0 918.7 -1.1 28
2017-08-22 13:00:00 29.7 8 Sudoeste 22 Sur 0 919.1 -0.9 30
2017-08-22 12:00:00 27.7 10 Sur 21 Sudoeste 0 919.7 -0.1 35
2017-08-22 11:00:00 24.7 9 Sur 17 Sudeste 0 919.8 0 46
2017-08-22 10:00:00 21.4 8 Sur 13 Sudeste 0 920 0.2 62
2017-08-22 09:00:00 17.5 8 Sudeste 15 Este 0 919.8 0.2 81
2017-08-22 08:00:00 15.7 9 Sudeste 18 Sudeste 0 919.8 0.1 85
2017-08-22 07:00:00 15.5 14 Sudeste 19 Sudeste 0 919.8 -0.1 85
2017-08-22 06:00:00 15.7 15 Sudeste 21 Sudeste 0 919.6 -0.3 85
2017-08-22 05:00:00 16 15 Sudeste 20 Sudeste 0 919.7 -0.3 85
2017-08-22 04:00:00 16 10 Sudeste 15 Sudeste 0 919.9 -0.3 84
2017-08-22 03:00:00 16.5 13 Sudeste 18 Sudeste 0 919.9 -0.3 83
2017-08-22 02:00:00 16.6 13 Sudeste 16 Sudeste 0 920 0 80
2017-08-22 01:00:00 17.5 13 Sudeste 18 Sudeste 0 920.2 0.9 75
2017-08-22 00:00:00 18.6 13 Sur 19 Sur 0 920.2 1.6 71